createdAt,value
2023-02-06T00:00:43.383Z,4.63
2023-02-06T00:03:06.294Z,5.40
2023-02-06T00:05:09.172Z,5.87
2023-02-06T00:07:11.619Z,5.33
2023-02-06T00:09:14.904Z,5.37
2023-02-06T00:11:17.446Z,5.30
2023-02-06T00:13:20.452Z,5.10
2023-02-06T00:15:24.243Z,4.47
2023-02-06T00:17:27.085Z,4.60
2023-02-06T00:19:29.620Z,5.07
2023-02-06T00:21:32.639Z,4.83
2023-02-06T00:23:35.090Z,4.07
2023-02-06T00:25:38.053Z,4.37
2023-02-06T00:27:40.644Z,4.27
2023-02-06T00:29:42.992Z,4.30
2023-02-06T00:31:45.637Z,3.80
2023-02-06T00:33:48.185Z,4.70
2023-02-06T00:35:50.666Z,4.40
2023-02-06T00:37:53.493Z,4.50
2023-02-06T00:39:56.002Z,4.17
2023-02-06T00:41:58.428Z,4.37
2023-02-06T00:44:00.974Z,4.23
2023-02-06T00:46:03.738Z,5.37
2023-02-06T00:48:06.310Z,3.90
2023-02-06T00:50:09.284Z,4.40
2023-02-06T00:52:11.761Z,4.50
2023-02-06T00:54:14.328Z,5.00
2023-02-06T00:56:16.798Z,5.20
2023-02-06T00:58:19.340Z,4.90
2023-02-06T01:00:21.804Z,4.83
2023-02-06T01:02:24.275Z,4.60
2023-02-06T01:04:26.788Z,4.70
2023-02-06T01:06:29.569Z,5.27
2023-02-06T01:08:32.338Z,4.70
2023-02-06T01:10:34.764Z,4.40
2023-02-06T01:12:37.591Z,4.10
2023-02-06T01:14:40.003Z,4.70
2023-02-06T01:16:42.500Z,4.20
2023-02-06T01:18:44.952Z,4.00
2023-02-06T01:20:47.441Z,4.73
2023-02-06T01:22:50.252Z,4.57
2023-02-06T01:24:52.741Z,3.30
2023-02-06T01:26:55.559Z,4.13
2023-02-06T01:28:58.127Z,4.07
2023-02-06T01:31:00.933Z,4.33
2023-02-06T01:33:03.543Z,4.80
2023-02-06T01:35:07.730Z,3.77
2023-02-06T01:37:09.799Z,3.73
2023-02-06T01:39:12.556Z,4.00
2023-02-06T01:41:16.443Z,4.60
2023-02-06T01:43:19.350Z,3.60
2023-02-06T01:45:39.982Z,4.10
2023-02-06T01:47:42.929Z,3.47
2023-02-06T01:49:48.062Z,3.60
2023-02-06T01:51:53.207Z,3.13
2023-02-06T01:54:02.194Z,3.80
2023-02-06T01:56:07.472Z,3.45
2023-02-06T01:58:13.122Z,3.13
2023-02-06T02:00:15.984Z,3.33
2023-02-06T02:02:18.778Z,3.47
2023-02-06T02:04:24.418Z,3.20
2023-02-06T02:06:27.712Z,3.80
2023-02-06T02:08:40.733Z,4.50
2023-02-06T02:10:43.308Z,3.90
2023-02-06T02:12:46.166Z,3.87
2023-02-06T02:14:50.015Z,2.90
2023-02-06T02:16:52.748Z,4.00
2023-02-06T02:19:05.931Z,4.17
2023-02-06T02:21:11.788Z,3.07
2023-02-06T02:23:24.910Z,3.50
2023-02-06T02:26:04.653Z,3.87
2023-02-06T02:28:07.172Z,2.97
2023-02-06T02:30:12.870Z,2.97
2023-02-06T02:32:39.408Z,3.43
2023-02-06T02:34:45.196Z,3.93
2023-02-06T02:37:08.924Z,3.53
2023-02-06T02:39:17.822Z,2.50
2023-02-06T02:41:28.670Z,2.70
2023-02-06T02:43:54.058Z,2.70
2023-02-06T02:46:35.154Z,3.20
2023-02-06T02:48:43.754Z,3.77
2023-02-06T02:50:46.619Z,3.43
2023-02-06T02:52:49.658Z,3.57
2023-02-06T02:54:52.137Z,3.80
2023-02-06T02:57:02.832Z,3.83
2023-02-06T02:59:11.242Z,4.10
2023-02-06T03:01:19.447Z,4.00
2023-02-06T03:03:23.957Z,3.90
2023-02-06T03:05:28.056Z,3.80
2023-02-06T03:07:55.550Z,3.30
2023-02-06T03:10:11.358Z,3.60
2023-02-06T03:12:18.362Z,3.47
2023-02-06T03:14:40.823Z,3.67
2023-02-06T03:16:50.623Z,3.93
2023-02-06T03:19:07.120Z,3.53
2023-02-06T03:21:13.807Z,3.67
2023-02-06T03:23:30.703Z,3.97
2023-02-06T03:25:40.601Z,3.13
2023-02-06T03:27:45.606Z,3.07
2023-02-06T03:29:50.419Z,3.67
2023-02-06T03:31:59.498Z,3.17
2023-02-06T03:34:15.074Z,3.37
2023-02-06T03:36:18.549Z,4.07
2023-02-06T03:38:20.801Z,3.13
2023-02-06T03:40:25.027Z,3.73
2023-02-06T03:42:29.710Z,4.83
2023-02-06T03:44:36.434Z,4.77
2023-02-06T03:46:40.782Z,5.40
2023-02-06T03:48:50.458Z,6.00
2023-02-06T03:50:54.458Z,4.65
2023-02-06T03:52:59.291Z,6.37
2023-02-06T03:55:07.197Z,5.90
2023-02-06T03:57:14.283Z,6.03
2023-02-06T03:59:16.804Z,6.93
2023-02-06T04:01:19.857Z,6.53
2023-02-06T04:03:22.982Z,5.23
2023-02-06T04:05:26.247Z,6.70
2023-02-06T04:07:31.235Z,6.73
2023-02-06T04:09:33.971Z,7.37
2023-02-06T04:11:36.489Z,6.33
2023-02-06T04:13:39.256Z,7.67
2023-02-06T04:15:41.704Z,6.37
2023-02-06T04:17:58.957Z,6.90
2023-02-06T04:20:02.952Z,7.50
2023-02-06T04:22:06.908Z,8.30
2023-02-06T04:24:09.409Z,7.80
2023-02-06T04:26:12.166Z,8.13
2023-02-06T04:28:14.816Z,7.93
2023-02-06T04:30:18.420Z,8.97
2023-02-06T04:32:21.089Z,7.93
2023-02-06T04:34:23.925Z,7.50
2023-02-06T04:36:26.403Z,9.10
2023-02-06T04:38:28.895Z,8.47
2023-02-06T04:40:31.441Z,9.23
2023-02-06T04:42:33.869Z,9.10
2023-02-06T04:44:38.542Z,10.03
2023-02-06T04:46:41.046Z,9.23
2023-02-06T04:48:43.624Z,10.37
2023-02-06T04:50:46.140Z,10.70
2023-02-06T04:52:48.697Z,9.47
2023-02-06T04:54:51.482Z,11.17
2023-02-06T04:56:54.005Z,8.90
2023-02-06T04:58:56.880Z,9.07
2023-02-06T05:00:59.134Z,10.20
2023-02-06T05:03:01.912Z,10.30
2023-02-06T05:05:05.317Z,11.70
2023-02-06T05:07:08.087Z,9.67
2023-02-06T05:09:10.460Z,9.70
2023-02-06T05:11:13.271Z,9.90
2023-02-06T05:13:15.799Z,9.73
2023-02-06T05:15:18.702Z,11.13
2023-02-06T05:17:21.150Z,11.33
2023-02-06T05:19:23.985Z,10.73
2023-02-06T05:21:26.738Z,10.83
2023-02-06T05:23:29.790Z,9.40
2023-02-06T05:25:32.278Z,10.90
2023-02-06T05:27:35.054Z,11.50
2023-02-06T05:29:37.537Z,10.57
2023-02-06T05:31:40.761Z,11.23
2023-02-06T05:33:43.296Z,11.73
2023-02-06T05:35:46.257Z,12.80
2023-02-06T05:37:48.811Z,11.83
2023-02-06T05:39:51.594Z,11.13
2023-02-06T05:41:53.834Z,13.27
2023-02-06T05:43:56.622Z,12.30
2023-02-06T05:46:01.738Z,10.20
2023-02-06T05:48:04.717Z,11.90
2023-02-06T05:50:07.039Z,13.03
2023-02-06T05:52:09.826Z,12.47
2023-02-06T05:54:12.092Z,11.40
2023-02-06T05:56:14.872Z,12.10
2023-02-06T05:58:17.136Z,12.47
2023-02-06T06:00:20.194Z,13.27
2023-02-06T06:02:22.708Z,11.77
2023-02-06T06:04:25.806Z,12.47
2023-02-06T06:06:28.044Z,12.97
2023-02-06T06:08:30.819Z,14.63
2023-02-06T06:10:33.004Z,13.37
2023-02-06T06:12:35.785Z,12.77
2023-02-06T06:14:37.908Z,13.67
2023-02-06T06:16:41.986Z,12.93
2023-02-06T06:18:44.101Z,13.50
2023-02-06T06:20:47.435Z,13.37
2023-02-06T06:22:49.997Z,14.07
2023-02-06T06:24:52.891Z,14.00
2023-02-06T06:26:55.467Z,12.83
2023-02-06T06:28:58.272Z,14.70
2023-02-06T06:31:05.709Z,12.23
2023-02-06T06:33:08.611Z,12.97
2023-02-06T06:35:11.137Z,14.20
2023-02-06T06:37:14.026Z,13.33
2023-02-06T06:39:16.582Z,13.57
2023-02-06T06:41:19.282Z,12.97
2023-02-06T06:43:21.713Z,14.40
2023-02-06T06:45:24.513Z,14.83
2023-02-06T06:47:27.057Z,15.68
2023-02-06T06:49:30.176Z,15.48
2023-02-06T06:51:32.824Z,16.63
2023-02-06T06:53:40.210Z,17.05
2023-02-06T06:55:42.894Z,16.13
2023-02-06T06:57:46.323Z,16.85
2023-02-06T06:59:49.045Z,17.40
2023-02-06T07:01:52.601Z,17.27
2023-02-06T07:03:55.082Z,17.13
2023-02-06T07:05:57.889Z,16.55
2023-02-06T07:08:00.330Z,17.38
2023-02-06T07:10:03.136Z,16.25
2023-02-06T07:12:05.883Z,17.67
2023-02-06T07:14:08.687Z,18.05
2023-02-06T07:16:12.090Z,18.02
2023-02-06T07:18:14.955Z,18.13
2023-02-06T07:20:17.630Z,18.38
2023-02-06T07:22:20.614Z,19.15
2023-02-06T07:24:23.207Z,19.08
2023-02-06T07:26:25.981Z,21.77
2023-02-06T07:28:32.626Z,20.95
2023-02-06T07:30:35.447Z,20.10
2023-02-06T07:32:37.971Z,21.48
2023-02-06T07:34:40.858Z,23.13
2023-02-06T07:36:43.742Z,22.83
2023-02-06T07:38:46.504Z,20.95
2023-02-06T07:40:49.240Z,21.85
2023-02-06T07:42:52.121Z,18.33
2023-02-06T07:44:55.042Z,22.38
2023-02-06T07:46:58.756Z,19.35
2023-02-06T07:49:01.316Z,17.67
2023-02-06T07:51:06.265Z,17.63
2023-02-06T07:53:08.871Z,17.10
2023-02-06T07:55:11.635Z,17.98
2023-02-06T07:57:14.148Z,17.27
2023-02-06T07:59:17.176Z,17.95
2023-02-06T08:01:20.050Z,16.52
2023-02-06T08:03:22.929Z,16.42
2023-02-06T08:05:25.693Z,19.00
2023-02-06T08:07:28.443Z,18.67
2023-02-06T08:09:31.784Z,16.58
2023-02-06T08:11:35.945Z,17.98
2023-02-06T08:13:38.743Z,17.58
2023-02-06T08:15:41.623Z,18.13
2023-02-06T08:17:44.574Z,19.38
2023-02-06T08:19:47.583Z,19.15
2023-02-06T08:21:50.006Z,19.48
2023-02-06T08:23:56.820Z,19.70
2023-02-06T08:26:07.986Z,20.27
2023-02-06T08:28:14.972Z,21.00
2023-02-06T08:30:17.602Z,20.83
2023-02-06T08:32:20.386Z,21.85
2023-02-06T08:34:22.900Z,25.15
2023-02-06T08:36:25.992Z,28.23
2023-02-06T08:38:28.455Z,26.83
2023-02-06T08:40:31.219Z,26.70
2023-02-06T08:42:33.842Z,31.00
2023-02-06T08:44:36.613Z,29.70
2023-02-06T08:46:39.712Z,29.33
2023-02-06T08:48:42.731Z,27.87
2023-02-06T08:50:46.638Z,28.80
2023-02-06T08:52:49.452Z,30.40
2023-02-06T08:54:52.939Z,33.70
2023-02-06T08:57:01.024Z,29.20
2023-02-06T08:59:04.385Z,32.30
2023-02-06T09:01:13.888Z,33.23
2023-02-06T09:03:16.374Z,27.48
2023-02-06T09:05:19.179Z,27.90
2023-02-06T09:07:22.543Z,30.73
2023-02-06T09:09:25.377Z,34.47
2023-02-06T09:11:28.293Z,35.27
2023-02-06T09:13:32.243Z,33.33
2023-02-06T09:15:35.113Z,34.07
2023-02-06T09:17:38.076Z,39.57
2023-02-06T09:19:40.620Z,38.73
2023-02-06T09:21:43.079Z,39.80
2023-02-06T09:23:51.266Z,39.23
2023-02-06T09:25:54.037Z,34.83
2023-02-06T09:27:57.172Z,30.97
2023-02-06T09:30:00.047Z,32.33
2023-02-06T09:32:02.560Z,32.03
2023-02-06T09:34:05.908Z,36.13
2023-02-06T09:36:13.742Z,32.73
2023-02-06T09:38:16.574Z,35.47
2023-02-06T09:40:24.454Z,36.80
2023-02-06T09:42:37.371Z,36.77
2023-02-06T09:44:44.416Z,35.23
2023-02-06T09:47:17.187Z,36.33
2023-02-06T09:49:43.197Z,33.60
2023-02-06T09:51:57.734Z,35.37
2023-02-06T09:54:30.043Z,35.05
2023-02-06T09:56:47.775Z,36.17
2023-02-06T09:59:02.415Z,36.40
2023-02-06T10:01:14.786Z,36.27
2023-02-06T10:03:17.345Z,36.65
2023-02-06T10:05:39.231Z,34.75
2023-02-06T10:07:57.846Z,34.58
2023-02-06T10:10:10.920Z,34.88
2023-02-06T10:12:15.428Z,30.88
2023-02-06T10:14:32.888Z,32.33
2023-02-06T10:16:57.536Z,30.63
2023-02-06T10:19:04.969Z,28.27
2023-02-06T10:21:31.987Z,27.02
2023-02-06T10:23:51.638Z,28.73
2023-02-06T10:26:18.229Z,29.88
2023-02-06T10:28:25.045Z,30.20
2023-02-06T10:30:40.405Z,31.85
2023-02-06T10:32:46.279Z,32.00
2023-02-06T10:34:48.828Z,32.92
2023-02-06T10:36:59.220Z,33.10
2023-02-06T10:41:20.349Z,28.75
2023-02-06T10:43:22.808Z,30.60
2023-02-06T10:45:44.126Z,28.27
2023-02-06T10:48:24.741Z,27.52
2023-02-06T10:50:37.449Z,29.00
2023-02-06T10:52:40.169Z,28.58
2023-02-06T10:54:47.816Z,28.88
2023-02-06T10:56:52.704Z,31.45
2023-02-06T10:58:58.094Z,31.55
2023-02-06T11:01:01.149Z,31.17
2023-02-06T11:03:08.105Z,29.17
2023-02-06T11:05:16.513Z,30.00
2023-02-06T11:07:26.838Z,28.40
2023-02-06T11:09:29.310Z,32.30
2023-02-06T11:11:37.313Z,27.40
2023-02-06T11:13:40.109Z,27.58
2023-02-06T11:15:50.465Z,26.83
2023-02-06T11:20:01.748Z,27.45
2023-02-06T11:22:12.648Z,26.75
2023-02-06T11:24:16.534Z,30.30
2023-02-06T11:26:21.034Z,31.63
2023-02-06T11:28:25.036Z,33.47
2023-02-06T11:30:38.202Z,28.65
2023-02-06T11:32:52.877Z,25.90
2023-02-06T11:35:02.669Z,30.63
2023-02-06T11:37:25.455Z,30.45
2023-02-06T11:39:33.020Z,30.70
2023-02-06T11:41:35.798Z,26.15
2023-02-06T11:43:41.454Z,28.55
2023-02-06T11:45:44.738Z,25.80
2023-02-06T11:47:48.153Z,27.48
2023-02-06T11:49:51.023Z,25.45
2023-02-06T11:51:53.997Z,24.02
2023-02-06T11:53:59.905Z,24.45
2023-02-06T11:56:07.624Z,23.50
2023-02-06T11:58:13.100Z,24.00
2023-02-06T12:00:23.357Z,23.20
2023-02-06T12:02:28.003Z,21.38
2023-02-06T12:04:40.797Z,22.42
2023-02-06T12:06:44.009Z,23.05
2023-02-06T12:08:51.978Z,23.15
2023-02-06T12:11:02.808Z,22.15
2023-02-06T12:13:14.598Z,20.73
2023-02-06T12:15:44.825Z,18.77
2023-02-06T12:17:56.710Z,16.00
2023-02-06T12:20:26.477Z,16.92
2023-02-06T12:22:33.117Z,18.63
2023-02-06T12:24:41.094Z,19.17
2023-02-06T12:26:45.015Z,19.13
2023-02-06T12:29:00.350Z,18.93
2023-02-06T12:31:13.172Z,20.07
2023-02-06T12:33:23.022Z,22.65
2023-02-06T12:35:59.669Z,19.50
2023-02-06T12:38:08.164Z,19.37
2023-02-06T12:40:28.981Z,17.73
2023-02-06T12:43:04.897Z,21.47
2023-02-06T12:45:48.709Z,21.90
2023-02-06T12:48:13.641Z,22.37
2023-02-06T12:50:26.996Z,22.03
2023-02-06T12:52:41.463Z,26.37
2023-02-06T12:54:59.361Z,23.50
2023-02-06T12:57:25.821Z,24.87
2023-02-06T13:00:05.435Z,20.23
2023-02-06T13:02:26.253Z,18.73
2023-02-06T13:04:31.785Z,17.87
2023-02-06T13:06:53.438Z,17.10
2023-02-06T13:08:57.573Z,18.00
2023-02-06T13:11:05.547Z,14.97
2023-02-06T13:13:24.829Z,14.67
2023-02-06T13:15:28.796Z,14.35
2023-02-06T13:17:35.783Z,15.20
2023-02-06T13:19:38.628Z,16.70
2023-02-06T13:21:40.756Z,17.47
2023-02-06T13:24:03.407Z,15.83
2023-02-06T13:26:05.502Z,16.13
2023-02-06T13:28:23.089Z,15.07
2023-02-06T13:30:31.043Z,16.57
2023-02-06T13:32:43.670Z,18.23
2023-02-06T13:34:58.430Z,17.23
2023-02-06T13:37:37.363Z,17.30
2023-02-06T13:39:39.518Z,16.23
2023-02-06T13:41:44.637Z,18.10
2023-02-06T13:44:06.705Z,18.60
2023-02-06T13:46:20.065Z,17.37
2023-02-06T13:49:16.409Z,18.67
2023-02-06T13:51:24.691Z,15.93
2023-02-06T13:53:26.704Z,18.47
2023-02-06T13:55:43.247Z,18.00
2023-02-06T13:57:51.361Z,16.40
2023-02-06T14:00:23.100Z,18.10
2023-02-06T14:02:39.996Z,17.90
2023-02-06T14:04:45.303Z,17.60
2023-02-06T14:07:13.578Z,17.10
2023-02-06T14:09:15.639Z,18.57
2023-02-06T14:11:48.412Z,15.77
2023-02-06T14:14:24.848Z,16.03
2023-02-06T14:16:36.080Z,18.10
2023-02-06T14:19:08.940Z,15.57
2023-02-06T14:21:35.453Z,16.63
2023-02-06T14:23:59.420Z,14.30
2023-02-06T14:26:09.371Z,16.53
2023-02-06T14:28:23.235Z,15.73
2023-02-06T14:30:42.281Z,14.53
2023-02-06T14:32:59.161Z,17.20
2023-02-06T14:35:39.673Z,13.40
2023-02-06T14:38:19.690Z,15.80
2023-02-06T14:40:28.489Z,14.17
2023-02-06T14:42:41.750Z,14.20
2023-02-06T14:44:50.602Z,13.20
2023-02-06T14:46:53.028Z,14.33
2023-02-06T14:48:59.951Z,14.40
2023-02-06T14:51:02.229Z,15.87
2023-02-06T14:53:16.861Z,12.87
2023-02-06T14:55:31.172Z,12.57
2023-02-06T14:57:33.613Z,12.40
2023-02-06T14:59:35.830Z,14.07
2023-02-06T15:01:38.453Z,11.93
2023-02-06T15:03:41.973Z,12.00
2023-02-06T15:05:45.226Z,12.47
2023-02-06T15:07:58.563Z,12.20
2023-02-06T15:10:06.266Z,12.57
2023-02-06T15:12:25.011Z,11.23
2023-02-06T15:14:30.579Z,11.90
2023-02-06T15:16:49.324Z,10.57
2023-02-06T15:18:51.450Z,12.03
2023-02-06T15:21:02.163Z,13.00
2023-02-06T15:23:18.032Z,11.40
2023-02-06T15:25:36.133Z,12.00
2023-02-06T15:27:39.417Z,12.67
2023-02-06T15:29:49.154Z,13.73
2023-02-06T15:32:01.553Z,12.45
2023-02-06T15:34:04.110Z,12.20
2023-02-06T15:36:06.602Z,13.27
2023-02-06T15:38:15.249Z,13.60
2023-02-06T15:40:27.602Z,14.37
2023-02-06T15:42:30.637Z,14.17
2023-02-06T15:44:36.077Z,15.27
2023-02-06T15:46:39.141Z,14.97
2023-02-06T15:48:48.371Z,14.50
2023-02-06T15:50:59.048Z,14.23
2023-02-06T15:53:16.420Z,15.63
2023-02-06T15:55:36.154Z,15.97
2023-02-06T15:57:43.685Z,14.30
2023-02-06T15:59:46.209Z,13.67
2023-02-06T16:01:48.986Z,13.93
2023-02-06T16:03:56.066Z,13.83
2023-02-06T16:05:58.415Z,14.73
2023-02-06T16:08:02.988Z,14.47
2023-02-06T16:10:25.677Z,15.37
2023-02-06T16:12:36.511Z,14.77
2023-02-06T16:14:40.825Z,15.63
2023-02-06T16:16:59.433Z,11.60
2023-02-06T16:19:01.587Z,15.23
2023-02-06T16:21:16.269Z,18.20
2023-02-06T16:23:41.857Z,16.53
2023-02-06T16:25:46.084Z,14.23
2023-02-06T16:27:50.846Z,16.17
2023-02-06T16:29:56.118Z,17.97
2023-02-06T16:32:11.847Z,16.57
2023-02-06T16:34:40.990Z,17.33
2023-02-06T16:36:43.120Z,19.73
2023-02-06T16:38:54.073Z,21.57
2023-02-06T16:41:04.418Z,24.27
2023-02-06T16:43:11.296Z,26.87
2023-02-06T16:45:19.883Z,24.33
2023-02-06T16:47:23.027Z,26.70
2023-02-06T16:49:25.190Z,27.63
2023-02-06T16:51:31.135Z,26.23
2023-02-06T16:53:33.330Z,26.07
2023-02-06T16:55:35.922Z,29.37
2023-02-06T16:57:43.352Z,28.53
2023-02-06T16:59:45.813Z,29.07
2023-02-06T17:01:48.124Z,30.00
2023-02-06T17:03:51.571Z,29.70
2023-02-06T17:05:54.634Z,28.70
2023-02-06T17:07:57.176Z,30.17
2023-02-06T17:09:59.724Z,30.87
2023-02-06T17:12:02.239Z,29.67
2023-02-06T17:14:04.911Z,34.90
2023-02-06T17:16:10.167Z,35.37
2023-02-06T17:18:15.376Z,34.37
2023-02-06T17:20:31.628Z,34.57
2023-02-06T17:22:34.192Z,31.10
2023-02-06T17:24:37.596Z,34.33
2023-02-06T17:26:39.712Z,33.90
2023-02-06T17:28:42.503Z,34.20
2023-02-06T17:30:46.367Z,35.47
2023-02-06T17:32:49.332Z,34.67
2023-02-06T17:34:54.509Z,30.27
2023-02-06T17:36:57.209Z,32.13
2023-02-06T17:39:00.290Z,32.17
2023-02-06T17:41:02.900Z,32.33
2023-02-06T17:43:05.836Z,30.20
2023-02-06T17:45:08.769Z,31.00
2023-02-06T17:47:11.283Z,29.77
2023-02-06T17:49:15.020Z,30.53
2023-02-06T17:51:17.168Z,28.20
2023-02-06T17:53:19.624Z,29.27
2023-02-06T17:55:23.522Z,29.47
2023-02-06T17:57:26.024Z,30.30
2023-02-06T17:59:28.157Z,29.57
2023-02-06T18:01:31.085Z,32.43
2023-02-06T18:03:34.555Z,29.20
2023-02-06T18:05:37.709Z,30.10
2023-02-06T18:07:40.690Z,33.60
2023-02-06T18:09:43.142Z,34.07
2023-02-06T18:11:45.438Z,32.77
2023-02-06T18:13:49.759Z,33.57
2023-02-06T18:15:55.322Z,34.20
2023-02-06T18:17:58.359Z,35.17
2023-02-06T18:20:01.265Z,34.70
2023-02-06T18:22:03.462Z,37.77
2023-02-06T18:24:06.584Z,33.50
2023-02-06T18:26:09.902Z,34.47
2023-02-06T18:28:17.337Z,35.37
2023-02-06T18:30:19.571Z,37.37
2023-02-06T18:32:22.028Z,33.30
2023-02-06T18:34:24.328Z,35.00
2023-02-06T18:36:27.287Z,34.00
2023-02-06T18:38:29.437Z,34.87
2023-02-06T18:40:32.690Z,36.07
2023-02-06T18:42:54.690Z,33.87
2023-02-06T18:44:57.199Z,31.37
2023-02-06T18:46:59.528Z,31.60
2023-02-06T18:49:02.358Z,29.27
2023-02-06T18:51:07.562Z,32.10
2023-02-06T18:53:10.190Z,29.40
2023-02-06T18:55:12.427Z,33.10
2023-02-06T18:57:14.903Z,30.93
2023-02-06T18:59:17.110Z,31.13
2023-02-06T19:01:23.069Z,30.40
2023-02-06T19:03:25.185Z,32.40
2023-02-06T19:05:30.470Z,34.30
2023-02-06T19:07:32.754Z,31.07
2023-02-06T19:09:35.190Z,30.03
2023-02-06T19:11:38.025Z,33.63
2023-02-06T19:13:40.781Z,30.30
2023-02-06T19:15:42.946Z,29.43
2023-02-06T19:17:45.392Z,26.47
2023-02-06T19:19:47.598Z,27.23
2023-02-06T19:21:50.239Z,24.77
2023-02-06T19:23:57.849Z,24.47
2023-02-06T19:26:01.024Z,27.37
2023-02-06T19:28:03.604Z,27.10
2023-02-06T19:30:10.177Z,24.83
2023-02-06T19:32:12.465Z,24.80
2023-02-06T19:34:15.068Z,22.57
2023-02-06T19:36:18.467Z,23.97
2023-02-06T19:38:21.083Z,25.53
2023-02-06T19:40:23.180Z,24.33
2023-02-06T19:42:25.653Z,23.03
2023-02-06T19:44:30.733Z,22.93
2023-02-06T19:46:33.629Z,23.73
2023-02-06T19:48:36.141Z,25.17
2023-02-06T19:50:39.485Z,24.43
2023-02-06T19:52:41.577Z,28.17
2023-02-06T19:54:44.104Z,24.67
2023-02-06T19:56:47.818Z,25.87
2023-02-06T19:58:56.022Z,23.97
2023-02-06T20:00:59.256Z,25.93
2023-02-06T20:03:01.650Z,22.77
2023-02-06T20:05:04.640Z,23.47
2023-02-06T20:07:07.146Z,24.60
2023-02-06T20:09:10.133Z,24.57
2023-02-06T20:11:15.286Z,25.03
2023-02-06T20:13:17.418Z,23.70
2023-02-06T20:15:19.877Z,24.80
2023-02-06T20:17:23.588Z,23.80
2023-02-06T20:19:28.871Z,24.23
2023-02-06T20:21:34.421Z,24.53
2023-02-06T20:23:38.468Z,24.23
2023-02-06T20:25:40.878Z,25.43
2023-02-06T20:27:43.315Z,24.93
2023-02-06T20:29:46.482Z,26.50
2023-02-06T20:31:50.265Z,29.03
2023-02-06T20:33:52.753Z,25.63
2023-02-06T20:35:55.229Z,28.73
2023-02-06T20:37:57.369Z,28.03
2023-02-06T20:40:00.783Z,30.20
2023-02-06T20:42:02.959Z,29.50
2023-02-06T20:44:06.082Z,26.73
2023-02-06T20:46:09.142Z,25.70
2023-02-06T20:48:11.605Z,27.10
2023-02-06T20:50:14.528Z,26.50
2023-02-06T20:52:17.140Z,26.97
2023-02-06T20:54:20.951Z,28.27
2023-02-06T20:56:23.899Z,23.93
2023-02-06T20:58:26.881Z,25.37
2023-02-06T21:00:29.439Z,26.13
2023-02-06T21:02:31.677Z,28.83
2023-02-06T21:04:34.675Z,27.10
2023-02-06T21:06:37.998Z,24.20
2023-02-06T21:08:40.685Z,25.33
2023-02-06T21:10:42.835Z,26.80
2023-02-06T21:12:47.628Z,23.37
2023-02-06T21:14:50.216Z,25.60
2023-02-06T21:16:52.716Z,27.20
2023-02-06T21:18:55.981Z,26.47
2023-02-06T21:21:07.341Z,30.07
2023-02-06T21:23:10.242Z,32.13
2023-02-06T21:25:13.181Z,31.50
2023-02-06T21:27:15.297Z,34.07
2023-02-06T21:29:17.898Z,31.37
2023-02-06T21:31:24.213Z,34.27
2023-02-06T21:33:27.034Z,32.83
2023-02-06T21:35:30.584Z,36.30
2023-02-06T21:37:35.409Z,35.23
2023-02-06T21:39:40.640Z,34.70
2023-02-06T21:41:44.105Z,36.50
2023-02-06T21:43:48.316Z,35.47
2023-02-06T21:45:53.030Z,35.00
2023-02-06T21:47:56.702Z,36.07
2023-02-06T21:50:01.244Z,35.43
2023-02-06T21:52:05.873Z,35.53
2023-02-06T21:54:10.088Z,37.33
2023-02-06T21:56:20.165Z,35.40
2023-02-06T21:58:22.556Z,35.77
2023-02-06T22:00:25.190Z,36.50
2023-02-06T22:02:27.691Z,36.17
2023-02-06T22:04:29.977Z,34.63
2023-02-06T22:06:32.584Z,34.23
2023-02-06T22:08:36.832Z,36.47
2023-02-06T22:10:39.319Z,34.43
2023-02-06T22:12:41.484Z,37.77
2023-02-06T22:14:44.234Z,34.80
2023-02-06T22:16:46.962Z,35.13
2023-02-06T22:18:50.079Z,33.03
2023-02-06T22:21:09.994Z,36.33
2023-02-06T22:23:12.511Z,35.53
2023-02-06T22:25:14.717Z,32.40
2023-02-06T22:27:17.668Z,32.77
2023-02-06T22:29:19.840Z,33.50
2023-02-06T22:31:25.451Z,30.57
2023-02-06T22:33:27.637Z,28.70
2023-02-06T22:35:30.143Z,30.83
2023-02-06T22:37:33.755Z,32.60
2023-02-06T22:39:36.278Z,32.30
2023-02-06T22:41:43.838Z,33.27
2023-02-06T22:43:48.386Z,30.57
2023-02-06T22:45:50.506Z,32.83
2023-02-06T22:47:53.004Z,29.40
2023-02-06T22:49:55.231Z,33.17
2023-02-06T22:51:58.835Z,30.27
2023-02-06T22:54:01.602Z,30.43
2023-02-06T22:56:31.135Z,29.57
2023-02-06T22:58:33.260Z,30.83
2023-02-06T23:00:35.755Z,29.80
2023-02-06T23:02:39.103Z,30.77
2023-02-06T23:04:41.671Z,31.00
2023-02-06T23:06:44.656Z,31.43
2023-02-06T23:08:47.523Z,30.17
2023-02-06T23:10:49.652Z,30.97
2023-02-06T23:12:52.243Z,28.10
2023-02-06T23:14:54.502Z,28.07
2023-02-06T23:16:57.474Z,29.73
2023-02-06T23:19:02.100Z,27.40
2023-02-06T23:21:12.623Z,26.80
2023-02-06T23:23:14.739Z,27.70
2023-02-06T23:25:17.248Z,26.93
2023-02-06T23:27:21.047Z,26.53
2023-02-06T23:29:24.359Z,26.27
2023-02-06T23:31:27.999Z,26.73
2023-02-06T23:33:30.566Z,26.03
2023-02-06T23:35:38.247Z,26.07
2023-02-06T23:37:40.880Z,26.70
2023-02-06T23:39:42.986Z,25.50
2023-02-06T23:41:45.554Z,25.40
2023-02-06T23:43:52.586Z,24.73
2023-02-06T23:45:55.057Z,23.97
2023-02-06T23:47:57.318Z,26.43
2023-02-06T23:49:59.796Z,24.33
2023-02-06T23:52:02.016Z,25.10
2023-02-06T23:54:06.304Z,22.57
2023-02-06T23:56:21.458Z,23.40
2023-02-06T23:58:24.030Z,23.30
